CST,Max TemperatureF,Mean TemperatureF,Min TemperatureF,Max Dew PointF,MeanDew PointF,Min DewpointF,Max Humidity, Mean Humidity, Min Humidity, Max Sea Level PressureIn, Mean Sea Level PressureIn, Min Sea Level PressureIn, Max VisibilityMiles, Mean VisibilityMiles, Min VisibilityMiles, Max Wind SpeedMPH, Mean Wind SpeedMPH, Max Gust SpeedMPH,PrecipitationIn, CloudCover, Events, WindDirDegrees
2013-11-1,73,58,44,52,46,41,93,68,38,30.12,29.94,29.84,10,10,10,14,3,21,0.00,1,,310
2013-11-2,64,54,42,46,38,32,87,59,32,30.32,30.23,30.12,10,10,7,17,7,22,0.00,1,,333
2013-11-3,64,54,44,46,41,36,76,60,42,30.22,30.09,29.96,10,10,10,17,9,25,0.00,1,,162
2013-11-4,68,60,53,61,54,46,100,83,63,30.09,30.02,29.94,10,10,10,17,11,24,0.00,6,Rain,170
2013-11-5,68,62,53,68,62,54,100,100,94,30.08,29.99,29.91,10,6,2,17,10,29,0.67,8,Rain,165
2013-11-6,55,46,37,52,42,34,100,81,51,30.39,30.26,30.04,10,10,7,18,11,24,0.07,4,Rain,348
2013-11-7,71,53,35,45,39,34,100,67,33,30.49,30.42,30.36,10,10,10,7,1,,0.00,1,,242
2013-11-8,71,56,42,43,40,37,87,59,33,30.36,30.21,30.06,10,10,10,18,8,26,0.00,2,,196
2013-11-9,71,61,51,52,47,41,88,66,41,30.27,30.15,30.07,10,10,10,12,7,,0.00,3,,165
2013-11-10,71,61,51,55,50,41,94,74,43,30.39,30.31,30.27,10,10,10,6,2,,0.00,6,,150
2013-11-11,77,62,46,61,54,43,94,78,54,30.44,30.26,30.18,10,10,7,21,5,25,0.00,5,,223
2013-11-12,44,37,30,43,25,19,93,62,37,30.78,30.69,30.47,10,10,10,18,13,24,0.00,2,,11
2013-11-13,55,39,23,32,26,19,93,65,35,30.72,30.54,30.33,10,10,10,10,3,,0.00,0,Thunderstorm,192
2013-11-14,59,46,33,43,34,28,93,69,39,30.32,30.14,30.00,10,10,5,14,8,18,0.00,2,Rain,180
2013-11-15,68,56,44,55,50,43,100,80,56,29.99,29.89,29.80,10,10,5,13,8,18,0.02,1,Rain,166
2013-11-16,77,68,59,68,62,55,100,85,57,29.80,29.68,29.57,10,10,10,20,13,28,0.00,1,Rain,182
2013-11-17,77,64,51,68,51,32,88,62,28,30.15,29.82,29.59,10,10,7,16,11,26,0.00,0,,285
2013-11-18,71,56,42,41,35,30,66,47,29,30.28,30.21,30.14,10,10,3,9,5,,0.00,1,,57
2013-11-19,62,58,53,41,36,32,62,47,32,30.21,30.11,29.99,10,10,10,16,7,23,0.00,5,Rain,154
2013-11-20,62,58,53,50,40,34,68,54,44,30.00,29.93,29.86,10,10,10,16,12,23,0.00,7,,169
2013-11-21,71,53,35,68,48,34,100,97,83,30.39,30.16,29.97,10,6,2,22,12,28,0.00,8,,327
2013-11-22,35,34,32,34,32,28,100,95,81,30.56,30.50,30.39,10,9,2,20,14,28,0.06,8,Snow,2
2013-11-23,41,37,33,32,31,25,93,84,53,30.66,30.60,30.54,10,10,10,9,6,,0.05,8,,13
2013-11-24,,,,,,,,,,,,,,,,,,,,,,
2013-11-25,,,,,,,,,,,,,,,,,,,,,,
2013-11-26,51,42,32,34,31,27,81,65,47,30.43,30.31,30.23,10,10,10,20,14,26,0.00,0,,354
2013-11-27,48,34,21,23,20,18,93,62,32,30.49,30.43,30.32,10,10,10,8,4,,0.00,0,,2
2013-11-28,51,51,51,32,32,32,47,47,47,30.36,30.36,30.35,10,10,10,0,0,,0.00,0,,-1
2013-11-29,60,46,32,36,34,27,81,54,36,30.47,30.35,30.29,10,10,10,12,7,16,0.00,0,,177
2013-11-30,64,53,42,50,46,36,100,78,59,30.29,30.19,30.12,10,10,7,12,7,,0.00,0,Thunderstorm,194